Time;durP1;ratioP1;P1;durP2;ratioP2;P2;SDS_P1;SDS_P2;PMS_P1;PMS_P2;Temp;Humidity;BMP_temperature;BMP_pressure;BME280_temperature;BME280_humidity;BME280_pressure;Samples;Min_cycle;Max_cycle;Signal;HPM_P1;HPM_P2
2021/03/11 00:02:25;;;;;;;29.60;16.30;;;-0.10;53.20;;;;;;4950334;29;20654;-71
2021/03/11 00:04:53;;;;;;;29.73;16.63;;;-0.10;53.40;;;;;;4952071;28;20220;-71
2021/03/11 00:07:19;;;;;;;30.43;16.60;;;-0.10;53.50;;;;;;4951288;29;20220;-71
2021/03/11 00:09:45;;;;;;;32.30;16.20;;;-0.10;53.50;;;;;;4947554;28;20627;-71
2021/03/11 00:12:12;;;;;;;26.73;15.63;;;-0.10;53.70;;;;;;4952519;28;20680;-72
2021/03/11 00:14:38;;;;;;;28.40;16.33;;;-0.10;53.70;;;;;;4972841;28;20225;-71
2021/03/11 00:17:06;;;;;;;25.00;13.70;;;-0.10;53.80;;;;;;4950813;28;20320;-72
2021/03/11 00:19:33;;;;;;;27.97;15.63;;;-0.10;53.80;;;;;;4949993;28;20241;-72
2021/03/11 00:22:00;;;;;;;27.13;15.07;;;0.00;53.70;;;;;;4953185;28;20570;-72
2021/03/11 00:24:27;;;;;;;25.90;15.47;;;0.00;53.60;;;;;;4949870;28;20223;-72
2021/03/11 00:26:53;;;;;;;24.07;15.20;;;0.00;53.60;;;;;;4952264;28;20205;-72
2021/03/11 00:29:20;;;;;;;30.60;16.60;;;0.00;53.60;;;;;;4949702;28;20225;-71
2021/03/11 00:31:47;;;;;;;24.93;15.17;;;0.00;53.60;;;;;;4954124;28;20297;-71
2021/03/11 00:34:13;;;;;;;25.27;14.70;;;0.10;53.70;;;;;;4950838;28;20232;-72
2021/03/11 00:36:39;;;;;;;33.80;14.57;;;0.10;53.80;;;;;;4950086;29;20612;-70
2021/03/11 00:39:07;;;;;;;25.37;14.87;;;0.10;53.70;;;;;;4954017;28;20205;-72
2021/03/11 00:41:34;;;;;;;27.20;14.73;;;0.10;53.70;;;;;;4949867;28;20304;-72
2021/03/11 00:44:01;;;;;;;30.30;14.97;;;0.10;53.60;;;;;;4968407;28;20209;-73
2021/03/11 00:46:27;;;;;;;26.40;15.57;;;0.10;53.70;;;;;;4948912;29;20201;-71
2021/03/11 00:48:54;;;;;;;26.63;15.27;;;0.20;53.80;;;;;;4948678;28;20218;-70
2021/03/11 00:51:20;;;;;;;27.07;14.57;;;0.20;53.70;;;;;;4948914;28;20209;-71
2021/03/11 00:53:46;;;;;;;24.43;14.27;;;0.20;53.80;;;;;;4947272;28;20244;-73
2021/03/11 00:56:16;;;;;;;24.33;14.40;;;0.10;53.70;;;;;;4951429;28;20710;-71
2021/03/11 00:58:43;;;;;;;25.33;14.73;;;0.10;53.80;;;;;;4949907;28;20298;-71
2021/03/11 01:01:10;;;;;;;27.73;15.30;;;0.10;53.80;;;;;;4948982;28;20213;-72
2021/03/11 01:03:36;;;;;;;24.37;15.23;;;0.10;53.90;;;;;;4949966;29;20217;-71
2021/03/11 01:06:03;;;;;;;28.83;14.13;;;0.10;54.00;;;;;;4953433;28;20289;-71
2021/03/11 01:08:29;;;;;;;22.03;13.57;;;0.10;54.00;;;;;;4952040;28;20213;-70
2021/03/11 01:10:56;;;;;;;26.17;14.57;;;0.10;54.00;;;;;;4949767;28;20454;-71
2021/03/11 01:13:24;;;;;;;26.20;14.83;;;0.10;54.00;;;;;;4950916;29;20255;-72
2021/03/11 01:15:50;;;;;;;27.40;15.20;;;0.10;54.00;;;;;;4949370;28;20283;-72
2021/03/11 01:18:16;;;;;;;29.43;15.50;;;0.10;54.00;;;;;;4944766;28;20337;-71
2021/03/11 01:20:43;;;;;;;30.33;15.93;;;0.00;53.90;;;;;;4951142;28;20221;-71
2021/03/11 01:23:09;;;;;;;25.40;14.57;;;0.00;54.00;;;;;;4949889;28;20213;-71
2021/03/11 01:25:36;;;;;;;28.47;15.57;;;0.00;54.00;;;;;;4949524;29;20206;-71
2021/03/11 01:28:02;;;;;;;24.03;14.87;;;0.00;54.60;;;;;;4950301;28;20214;-72
2021/03/11 01:30:30;;;;;;;28.20;15.97;;;0.00;54.10;;;;;;4949890;28;20292;-70
2021/03/11 01:32:56;;;;;;;24.53;15.67;;;0.00;54.20;;;;;;4950909;29;21296;-70
2021/03/11 01:35:22;;;;;;;26.77;14.60;;;0.00;54.30;;;;;;4945026;29;20305;-71
2021/03/11 01:37:49;;;;;;;27.90;15.50;;;-0.10;54.30;;;;;;4947066;28;20214;-71
2021/03/11 01:40:16;;;;;;;25.90;15.13;;;-0.10;54.40;;;;;;4948554;28;20284;-71
2021/03/11 01:42:42;;;;;;;33.20;16.37;;;-0.10;54.40;;;;;;4948561;29;20224;-70
2021/03/11 01:45:10;;;;;;;24.27;15.13;;;-0.10;54.40;;;;;;4948063;28;20214;-72
2021/03/11 01:47:37;;;;;;;27.97;15.23;;;0.00;54.50;;;;;;4953888;28;20410;-70
2021/03/11 01:50:04;;;;;;;32.63;15.07;;;-0.10;54.40;;;;;;4948430;29;20210;-71
2021/03/11 01:52:31;;;;;;;23.10;15.57;;;-0.10;54.50;;;;;;4954030;28;20249;-71
2021/03/11 01:54:57;;;;;;;27.33;14.10;;;-0.10;54.50;;;;;;4948390;28;20212;-71
2021/03/11 01:57:24;;;;;;;25.00;14.30;;;-0.10;54.50;;;;;;4953754;28;20698;-71
2021/03/11 01:59:51;;;;;;;25.60;15.27;;;-0.10;54.60;;;;;;4948453;28;20206;-71
2021/03/11 02:02:18;;;;;;;24.97;13.93;;;-0.10;54.60;;;;;;4951424;28;20244;-72
2021/03/11 02:04:45;;;;;;;25.83;13.93;;;-0.10;54.50;;;;;;4950662;28;20218;-71
2021/03/11 02:07:12;;;;;;;23.87;15.27;;;-0.10;54.60;;;;;;4949362;28;20198;-72
2021/03/11 02:09:39;;;;;;;28.17;15.03;;;-0.20;54.60;;;;;;4946151;28;20607;-70
2021/03/11 02:12:12;;;;;;;24.73;14.37;;;-0.20;54.70;;;;;;4951492;28;20209;-73
2021/03/11 02:14:52;;;;;;;26.07;15.17;;;-0.20;54.80;;;;;;4947581;28;20621;-72
2021/03/11 02:17:24;;;;;;;27.60;15.33;;;-0.20;54.80;;;;;;4953483;28;20252;-70
2021/03/11 02:20:18;;;;;;;26.80;14.60;;;-0.20;54.80;;;;;;4948222;28;21763;-71
2021/03/11 02:23:19;;;;;;;26.20;14.57;;;-0.20;55.00;;;;;;4933359;29;20659;-71
2021/03/11 02:25:57;;;;;;;24.17;13.83;;;-0.30;55.10;;;;;;4936417;29;20237;-71
2021/03/11 02:28:32;;;;;;;28.57;14.70;;;-0.30;55.20;;;;;;4945759;29;20209;-71
2021/03/11 02:30:59;;;;;;;26.37;14.63;;;-0.30;55.20;;;;;;4944622;28;20220;-72
2021/03/11 02:33:30;;;;;;;28.77;15.90;;;-0.20;55.40;;;;;;4949321;28;20288;-71
2021/03/11 02:35:58;;;;;;;26.03;14.67;;;-0.30;55.40;;;;;;4946665;28;20218;-72
2021/03/11 02:38:26;;;;;;;27.33;16.00;;;-0.30;55.50;;;;;;4948422;29;20210;-72
2021/03/11 02:40:58;;;;;;;26.10;15.17;;;-0.30;55.60;;;;;;4947504;28;20220;-71
2021/03/11 02:43:26;;;;;;;27.70;15.13;;;-0.40;55.60;;;;;;4948022;29;20287;-71
2021/03/11 02:45:53;;;;;;;26.20;14.83;;;-0.40;55.60;;;;;;4947153;28;20260;-72
2021/03/11 02:48:22;;;;;;;28.20;15.40;;;-0.40;55.80;;;;;;4946530;29;20213;-71
2021/03/11 02:50:50;;;;;;;29.10;16.00;;;-0.40;55.70;;;;;;4947274;28;20213;-72
2021/03/11 02:53:17;;;;;;;26.20;15.87;;;-0.40;55.70;;;;;;4945962;28;20349;-71
2021/03/11 02:55:45;;;;;;;25.40;14.20;;;-0.40;55.70;;;;;;4949417;28;20237;-71
2021/03/11 02:58:13;;;;;;;26.40;15.17;;;-0.40;55.70;;;;;;4947961;28;20206;-71
2021/03/11 03:00:41;;;;;;;26.70;14.93;;;-0.40;55.70;;;;;;4949607;29;20213;-72
2021/03/11 03:03:10;;;;;;;26.07;14.67;;;-0.40;55.80;;;;;;4949246;28;20739;-71
2021/03/11 03:05:38;;;;;;;24.77;14.50;;;-0.40;55.70;;;;;;4946632;29;20222;-70
2021/03/11 03:08:06;;;;;;;28.87;16.27;;;-0.40;55.70;;;;;;4946655;29;20659;-72
2021/03/11 03:10:35;;;;;;;26.77;15.47;;;-0.40;55.80;;;;;;4951286;28;20689;-72
2021/03/11 03:13:04;;;;;;;28.93;15.50;;;-0.40;55.70;;;;;;4950471;28;20205;-71
2021/03/11 03:15:31;;;;;;;25.40;15.30;;;-0.40;55.80;;;;;;4947614;28;20239;-70
2021/03/11 03:17:59;;;;;;;24.20;15.27;;;-0.50;55.80;;;;;;4951102;28;20295;-71
2021/03/11 03:20:27;;;;;;;30.80;17.37;;;-0.50;55.80;;;;;;4945835;28;20573;-70
2021/03/11 03:22:57;;;;;;;28.07;15.70;;;-0.40;56.00;;;;;;4953374;28;20212;-71
2021/03/11 03:25:24;;;;;;;26.83;16.00;;;-0.40;56.00;;;;;;4950016;28;20299;-70
2021/03/11 03:27:50;;;;;;;27.77;16.13;;;-0.40;56.00;;;;;;4949444;29;20304;-71
2021/03/11 03:30:19;;;;;;;26.17;15.07;;;-0.40;56.00;;;;;;4949424;29;20209;-70
2021/03/11 03:32:46;;;;;;;28.87;16.07;;;-0.40;56.00;;;;;;4948982;28;20240;-72
2021/03/11 03:35:15;;;;;;;23.53;13.80;;;-0.40;56.00;;;;;;4954868;28;20216;-71
2021/03/11 03:37:42;;;;;;;25.93;14.97;;;-0.40;56.00;;;;;;4953963;28;20672;-72
2021/03/11 03:40:13;;;;;;;27.97;15.33;;;-0.40;55.80;;;;;;4953907;28;20213;-71
2021/03/11 03:42:43;;;;;;;24.77;15.40;;;-0.50;55.70;;;;;;4952948;28;20272;-72
2021/03/11 03:45:13;;;;;;;26.73;15.10;;;-0.50;55.70;;;;;;4948933;29;20214;-71
2021/03/11 03:47:42;;;;;;;24.53;14.20;;;-0.50;55.80;;;;;;4953275;28;20283;-70
2021/03/11 03:50:12;;;;;;;25.83;15.37;;;-0.50;55.80;;;;;;4949088;28;20734;-71
2021/03/11 03:52:40;;;;;;;27.20;15.07;;;-0.50;55.90;;;;;;4951665;28;20264;-71
2021/03/11 03:55:08;;;;;;;29.40;15.60;;;-0.50;55.80;;;;;;4951796;28;20571;-70
2021/03/11 03:57:36;;;;;;;21.70;13.97;;;-0.50;55.90;;;;;;4952623;28;20264;-71
2021/03/11 04:00:07;;;;;;;27.57;15.20;;;-0.50;56.00;;;;;;4949228;29;20578;-72
2021/03/11 04:02:36;;;;;;;24.37;15.10;;;-0.50;55.90;;;;;;4950249;28;20302;-71
2021/03/11 04:05:04;;;;;;;30.67;16.17;;;-0.50;56.50;;;;;;4945341;29;20237;-72
2021/03/11 04:07:32;;;;;;;26.40;15.57;;;-0.40;55.90;;;;;;4953800;29;20213;-69
2021/03/11 04:09:59;;;;;;;25.00;14.37;;;-0.50;55.90;;;;;;4949008;28;20521;-71
2021/03/11 04:12:26;;;;;;;24.57;14.30;;;-0.50;55.80;;;;;;4952170;28;20219;-72
2021/03/11 04:14:55;;;;;;;26.13;14.70;;;-0.50;55.70;;;;;;4953021;28;20681;-71
2021/03/11 04:17:21;;;;;;;29.63;14.67;;;-0.50;55.70;;;;;;4947208;28;20225;-72
2021/03/11 04:19:48;;;;;;;25.63;14.77;;;-0.50;55.80;;;;;;4947685;28;20264;-71
2021/03/11 04:22:15;;;;;;;31.30;14.37;;;-0.50;55.90;;;;;;4952866;28;20215;-71
2021/03/11 04:24:44;;;;;;;34.73;18.30;;;-0.60;56.00;;;;;;4950259;29;20316;-70
2021/03/11 04:27:11;;;;;;;25.53;13.97;;;-0.60;56.70;;;;;;4947707;28;20570;-71
2021/03/11 04:29:38;;;;;;;23.33;14.57;;;-0.60;56.10;;;;;;4948234;29;20220;-71
2021/03/11 04:32:07;;;;;;;32.77;14.20;;;-0.60;56.00;;;;;;4951731;29;20205;-72
2021/03/11 04:34:34;;;;;;;22.17;14.37;;;-0.60;56.10;;;;;;4949619;28;20564;-72
2021/03/11 04:37:02;;;;;;;21.60;14.03;;;-0.60;56.10;;;;;;4951655;28;20698;-72
2021/03/11 04:39:30;;;;;;;21.63;13.63;;;-0.60;56.10;;;;;;4952027;28;20213;-70
2021/03/11 04:41:56;;;;;;;24.63;13.60;;;-0.60;56.10;;;;;;4952297;29;20267;-71
2021/03/11 04:44:24;;;;;;;24.03;14.50;;;-0.60;56.10;;;;;;4949568;29;20212;-70
2021/03/11 04:46:52;;;;;;;24.53;14.13;;;-0.70;56.10;;;;;;4953358;28;20205;-71
2021/03/11 04:49:23;;;;;;;25.80;14.33;;;-0.60;56.20;;;;;;4953650;28;20209;-72
2021/03/11 04:51:50;;;;;;;23.37;14.10;;;-0.70;56.20;;;;;;4947596;28;20663;-71
2021/03/11 04:54:18;;;;;;;26.10;13.97;;;-0.70;56.40;;;;;;4944892;28;20210;-72
2021/03/11 04:56:45;;;;;;;22.83;14.20;;;-0.60;57.20;;;;;;4951225;28;20224;-72
2021/03/11 04:59:12;;;;;;;27.90;14.37;;;-0.70;56.60;;;;;;4951509;28;20249;-72
2021/03/11 05:01:41;;;;;;;26.00;14.73;;;-0.70;56.70;;;;;;4948354;28;20582;-71
2021/03/11 05:04:09;;;;;;;26.93;14.20;;;-0.70;56.70;;;;;;4948200;28;20252;-72
2021/03/11 05:06:37;;;;;;;24.73;14.70;;;-0.70;56.80;;;;;;4952452;28;20342;-71
2021/03/11 05:09:04;;;;;;;30.57;15.27;;;-0.70;56.80;;;;;;4952157;28;20221;-71
2021/03/11 05:11:31;;;;;;;22.20;14.00;;;-0.70;57.00;;;;;;4947807;29;20228;-71
2021/03/11 05:13:57;;;;;;;24.13;14.03;;;-0.70;57.00;;;;;;4949538;28;20232;-71
2021/03/11 05:16:25;;;;;;;25.27;13.93;;;-0.70;57.20;;;;;;4948636;28;20234;-71
2021/03/11 05:18:51;;;;;;;24.47;13.70;;;-0.70;57.20;;;;;;4946629;28;20320;-73
2021/03/11 05:21:18;;;;;;;23.53;14.00;;;-0.70;57.20;;;;;;4941068;28;20224;-72
2021/03/11 05:23:49;;;;;;;21.47;14.07;;;-0.70;57.30;;;;;;4947158;29;20209;-71
2021/03/11 05:26:15;;;;;;;24.70;13.90;;;-0.70;57.40;;;;;;4947595;28;20197;-71
2021/03/11 05:28:41;;;;;;;26.83;13.70;;;-0.70;57.50;;;;;;4945518;28;20210;-72
2021/03/11 05:31:08;;;;;;;27.83;14.93;;;-0.60;57.50;;;;;;4951968;28;20229;-72
2021/03/11 05:33:34;;;;;;;25.43;14.77;;;-0.50;57.50;;;;;;4945341;28;20222;-71
2021/03/11 05:36:00;;;;;;;24.73;14.40;;;-0.50;57.40;;;;;;4946360;28;20239;-70
2021/03/11 05:38:27;;;;;;;27.70;15.77;;;-0.50;57.50;;;;;;4948746;28;20215;-72
2021/03/11 05:40:54;;;;;;;24.67;14.70;;;-0.40;57.60;;;;;;4950885;29;20306;-71
2021/03/11 05:43:21;;;;;;;24.50;14.83;;;-0.40;57.50;;;;;;4952270;28;20209;-70
2021/03/11 05:45:49;;;;;;;29.67;14.07;;;-0.30;57.50;;;;;;4949227;29;20645;-71
2021/03/11 05:48:16;;;;;;;26.87;14.33;;;-0.30;57.50;;;;;;4946807;28;20202;-70
2021/03/11 05:50:43;;;;;;;24.83;13.73;;;-0.30;57.50;;;;;;4949677;28;20332;-70
2021/03/11 05:53:11;;;;;;;27.43;15.13;;;-0.20;57.60;;;;;;4944994;29;20676;-71
2021/03/11 05:55:37;;;;;;;25.47;14.80;;;-0.20;57.50;;;;;;4941725;29;20213;-71
2021/03/11 05:58:05;;;;;;;25.90;15.93;;;-0.10;57.60;;;;;;4943717;29;20237;-71
2021/03/11 06:00:31;;;;;;;31.87;16.27;;;-0.10;57.50;;;;;;4951607;28;20304;-71
2021/03/11 06:03:00;;;;;;;27.93;15.30;;;0.00;57.60;;;;;;4947819;28;20304;-70
2021/03/11 06:05:27;;;;;;;27.87;14.97;;;-0.10;57.60;;;;;;4949709;29;20665;-70
2021/03/11 06:07:55;;;;;;;34.57;15.17;;;0.00;57.70;;;;;;4945262;28;20205;-70
2021/03/11 06:10:25;;;;;;;24.77;15.57;;;0.00;57.50;;;;;;4947075;29;20588;-71
2021/03/11 06:12:52;;;;;;;27.83;16.27;;;0.20;57.80;;;;;;4947861;28;20307;-73
2021/03/11 06:15:28;;;;;;;27.80;15.70;;;0.30;57.60;;;;;;4942489;28;20301;-73
2021/03/11 06:17:55;;;;;;;29.63;16.37;;;0.40;57.80;;;;;;4940312;29;20229;-74
2021/03/11 06:20:22;;;;;;;31.60;16.67;;;0.40;57.60;;;;;;4943517;29;20635;-73
2021/03/11 06:22:48;;;;;;;31.20;16.40;;;0.40;57.60;;;;;;4940432;29;20748;-73
2021/03/11 06:25:16;;;;;;;31.93;15.77;;;0.40;57.80;;;;;;4941855;28;20277;-71
2021/03/11 06:27:43;;;;;;;29.80;17.07;;;0.40;57.90;;;;;;4942553;28;20210;-74
2021/03/11 06:30:30;;;;;;;31.77;18.07;;;0.30;58.10;;;;;;4941432;28;20729;-75
2021/03/11 06:32:58;;;;;;;35.57;16.97;;;0.30;58.40;;;;;;4943522;28;20285;-75
2021/03/11 06:35:24;;;;;;;34.03;17.93;;;0.30;58.70;;;;;;4944523;28;20244;-76
2021/03/11 06:37:52;;;;;;;30.87;18.30;;;0.40;59.00;;;;;;4945102;28;20291;-74
2021/03/11 06:40:21;;;;;;;27.80;18.10;;;0.50;59.40;;;;;;4944836;28;20781;-74
2021/03/11 06:42:49;;;;;;;29.43;18.00;;;0.60;59.00;;;;;;4942912;29;20213;-75
2021/03/11 06:45:23;;;;;;;31.20;17.87;;;0.70;59.00;;;;;;4950865;29;20240;-74
2021/03/11 06:47:51;;;;;;;38.80;18.47;;;0.70;59.10;;;;;;4946810;28;20276;-76
2021/03/11 06:50:22;;;;;;;31.87;17.13;;;0.80;59.20;;;;;;4948118;28;20300;-75
2021/03/11 06:53:03;;;;;;;35.20;18.37;;;0.70;59.00;;;;;;4946868;28;20197;-74
2021/03/11 06:55:30;;;;;;;32.83;19.17;;;0.80;59.20;;;;;;4948814;28;20236;-75
2021/03/11 06:58:14;;;;;;;31.87;17.97;;;0.80;59.20;;;;;;4946715;29;20371;-73
2021/03/11 07:00:42;;;;;;;36.93;19.93;;;0.90;59.50;;;;;;4949252;29;20209;-75
2021/03/11 07:03:10;;;;;;;36.50;18.60;;;0.90;59.80;;;;;;4950306;28;20348;-74
2021/03/11 07:05:41;;;;;;;36.57;19.37;;;0.90;60.00;;;;;;4941993;28;20316;-75
2021/03/11 07:08:11;;;;;;;31.37;18.10;;;1.10;59.90;;;;;;4942496;29;20293;-74
2021/03/11 07:10:41;;;;;;;31.40;19.33;;;1.00;59.70;;;;;;4949919;28;20647;-75
2021/03/11 07:13:09;;;;;;;33.37;19.10;;;1.10;59.70;;;;;;4945489;28;20238;-76
2021/03/11 07:15:37;;;;;;;35.03;20.10;;;1.10;59.90;;;;;;4946915;28;20217;-75
2021/03/11 07:18:07;;;;;;;41.03;20.87;;;1.20;60.10;;;;;;4937876;29;20872;-76
2021/03/11 07:20:37;;;;;;;34.73;19.60;;;1.30;60.30;;;;;;4949480;29;20358;-76
2021/03/11 07:23:08;;;;;;;42.03;21.37;;;1.50;60.60;;;;;;4947243;28;20208;-76
2021/03/11 07:25:37;;;;;;;38.60;20.60;;;1.60;60.50;;;;;;4951335;28;20300;-74
2021/03/11 07:28:06;;;;;;;42.90;21.47;;;1.80;60.10;;;;;;4946395;29;20201;-75
2021/03/11 07:30:47;;;;;;;36.27;21.50;;;2.00;60.20;;;;;;4941736;28;20417;-73
2021/03/11 07:33:17;;;;;;;39.80;21.40;;;2.10;59.60;;;;;;4946631;29;20665;-74
2021/03/11 07:35:45;;;;;;;40.33;20.63;;;2.20;59.40;;;;;;4950954;29;20308;-78
2021/03/11 07:38:17;;;;;;;40.17;21.53;;;2.30;59.50;;;;;;4948379;28;20248;-82
2021/03/11 07:40:54;;;;;;;39.67;20.93;;;2.70;59.60;;;;;;4956858;28;20209;-75
2021/03/11 07:43:23;;;;;;;39.63;21.50;;;2.40;59.20;;;;;;4947668;29;20205;-75
2021/03/11 07:45:50;;;;;;;34.87;20.27;;;2.50;59.10;;;;;;4952022;28;20211;-75
2021/03/11 07:48:17;;;;;;;33.07;20.27;;;2.50;59.10;;;;;;4952094;28;20220;-76
2021/03/11 07:50:45;;;;;;;32.43;18.83;;;2.60;59.00;;;;;;4953349;29;20295;-76
2021/03/11 07:53:12;;;;;;;34.93;20.17;;;2.70;58.60;;;;;;4955452;28;21078;-77
2021/03/11 07:55:39;;;;;;;31.53;18.97;;;2.80;58.70;;;;;;4956111;28;20401;-73
2021/03/11 07:58:07;;;;;;;33.47;18.43;;;2.90;58.20;;;;;;4952374;28;20414;-75
2021/03/11 08:00:34;;;;;;;29.47;16.83;;;3.10;58.00;;;;;;4952535;29;20663;-74
2021/03/11 08:03:05;;;;;;;26.80;16.10;;;3.20;57.40;;;;;;4947627;28;20205;-76
2021/03/11 08:05:32;;;;;;;28.97;15.23;;;3.40;57.00;;;;;;4949044;29;20671;-73
2021/03/11 08:08:16;;;;;;;23.57;14.90;;;3.40;56.50;;;;;;4950005;28;20202;-71
2021/03/11 08:10:44;;;;;;;23.20;14.87;;;3.50;56.00;;;;;;4951490;29;20643;-73
2021/03/11 08:13:31;;;;;;;25.77;14.40;;;3.50;56.00;;;;;;4951901;28;20750;-74
2021/03/11 08:15:58;;;;;;;21.27;13.70;;;3.60;55.80;;;;;;4952429;28;20221;-74
2021/03/11 08:18:46;;;;;;;21.57;13.20;;;3.60;55.20;;;;;;4952603;28;20613;-74
2021/03/11 08:21:41;;;;;;;24.30;13.00;;;3.70;55.30;;;;;;4947021;28;20209;-73
2021/03/11 08:24:39;;;;;;;18.63;12.13;;;3.80;55.00;;;;;;4946821;29;20209;-75
2021/03/11 08:27:42;;;;;;;18.37;12.00;;;3.80;54.70;;;;;;4953754;28;20205;-72
2021/03/11 08:30:51;;;;;;;19.07;12.37;;;3.90;54.30;;;;;;4955746;28;20217;-74
2021/03/11 08:33:51;;;;;;;16.50;11.70;;;4.00;53.90;;;;;;4953449;28;20607;-73
2021/03/11 08:36:33;;;;;;;20.07;12.07;;;3.90;53.30;;;;;;4939032;29;20304;-73
2021/03/11 08:39:01;;;;;;;17.17;11.30;;;3.90;53.30;;;;;;4935664;29;20760;-73
2021/03/11 08:41:35;;;;;;;19.97;11.93;;;3.80;52.60;;;;;;4947609;29;20214;-74
2021/03/11 08:44:03;;;;;;;16.70;11.80;;;3.70;52.50;;;;;;4953884;29;20296;-73
2021/03/11 08:46:48;;;;;;;17.63;11.23;;;3.60;52.80;;;;;;4949062;28;20236;-74
2021/03/11 08:49:36;;;;;;;16.43;11.03;;;3.60;53.20;;;;;;4950538;29;20205;-74
2021/03/11 08:52:04;;;;;;;19.50;11.60;;;3.60;53.20;;;;;;4948819;29;20217;-75
2021/03/11 08:54:30;;;;;;;15.60;11.10;;;3.60;53.20;;;;;;4954453;28;20221;-74
2021/03/11 08:56:58;;;;;;;15.60;11.10;;;3.60;52.70;;;;;;4948100;28;20311;-75
2021/03/11 08:59:44;;;;;;;19.27;10.93;;;3.50;52.60;;;;;;4947725;28;20209;-73
2021/03/11 09:02:32;;;;;;;15.23;10.23;;;3.30;52.00;;;;;;4947500;28;20221;-74
2021/03/11 09:04:59;;;;;;;15.50;9.33;;;3.20;52.40;;;;;;4950120;28;20230;-75
2021/03/11 09:07:30;;;;;;;18.37;11.03;;;3.20;52.80;;;;;;4946076;28;20243;-75
2021/03/11 09:09:57;;;;;;;17.33;10.67;;;3.20;52.60;;;;;;4951187;28;20300;-74
2021/03/11 09:12:33;;;;;;;18.53;10.27;;;3.10;52.70;;;;;;4952335;28;20587;-76
2021/03/11 09:15:01;;;;;;;13.10;9.50;;;3.30;52.90;;;;;;4951278;28;20237;-74
2021/03/11 09:17:30;;;;;;;17.10;10.43;;;3.20;52.40;;;;;;4951281;28;20678;-72
2021/03/11 09:20:00;;;;;;;15.43;10.87;;;3.30;52.30;;;;;;4951810;28;20236;-72
2021/03/11 09:22:29;;;;;;;14.80;10.70;;;3.40;51.70;;;;;;4954164;28;20264;-72
2021/03/11 09:25:11;;;;;;;16.23;9.97;;;3.60;51.10;;;;;;4951508;28;20243;-72
2021/03/11 09:27:41;;;;;;;14.70;10.33;;;3.60;50.90;;;;;;4951075;28;20241;-71
2021/03/11 09:30:09;;;;;;;18.03;9.77;;;3.70;50.70;;;;;;4946510;28;20205;-73
2021/03/11 09:32:37;;;;;;;16.63;10.23;;;3.80;50.50;;;;;;4949918;28;20296;-73
2021/03/11 09:35:09;;;;;;;18.53;10.13;;;3.80;50.10;;;;;;4954117;28;20550;-73
2021/03/11 09:37:47;;;;;;;14.60;11.00;;;3.90;49.70;;;;;;4950412;28;20281;-73
2021/03/11 09:40:18;;;;;;;14.90;9.53;;;4.10;49.50;;;;;;4947873;28;20300;-72
2021/03/11 09:43:11;;;;;;;16.03;11.17;;;4.30;49.10;;;;;;4946876;29;20285;-72
2021/03/11 09:45:40;;;;;;;16.40;10.43;;;4.60;48.60;;;;;;4949189;29;20733;-72
2021/03/11 09:48:08;;;;;;;20.57;11.67;;;4.80;48.10;;;;;;4952938;28;20658;-72
2021/03/11 09:50:36;;;;;;;16.73;10.10;;;4.90;47.80;;;;;;4947083;28;20321;-73
2021/03/11 09:53:04;;;;;;;17.27;10.60;;;5.00;47.10;;;;;;4950490;28;20666;-71
2021/03/11 09:55:31;;;;;;;17.97;11.10;;;5.20;47.00;;;;;;4947792;28;20232;-73
2021/03/11 09:58:07;;;;;;;14.47;10.40;;;5.30;46.90;;;;;;4949689;28;20701;-73
2021/03/11 10:00:36;;;;;;;16.50;10.70;;;5.50;46.30;;;;;;4946875;28;20213;-73
2021/03/11 10:03:02;;;;;;;16.33;9.70;;;5.60;46.50;;;;;;4948297;28;20581;-73
2021/03/11 10:05:32;;;;;;;15.10;9.90;;;5.80;46.40;;;;;;4951748;28;20228;-72
2021/03/11 10:07:59;;;;;;;14.40;9.77;;;5.80;44.90;;;;;;4952962;28;20292;-73
2021/03/11 10:10:27;;;;;;;15.77;10.03;;;5.90;44.30;;;;;;4943657;28;20217;-72
2021/03/11 10:12:53;;;;;;;17.83;10.10;;;5.90;44.30;;;;;;4951461;28;20226;-73
2021/03/11 10:15:19;;;;;;;16.70;10.10;;;6.00;43.80;;;;;;4947214;28;20669;-73
2021/03/11 10:17:47;;;;;;;17.70;10.13;;;6.40;44.30;;;;;;4950178;28;20280;-73
2021/03/11 10:20:26;;;;;;;15.93;10.73;;;6.70;44.30;;;;;;4950882;28;20233;-73
2021/03/11 10:23:11;;;;;;;14.10;10.23;;;7.10;42.80;;;;;;4952561;28;20217;-75
2021/03/11 10:25:38;;;;;;;12.63;10.00;;;7.40;42.00;;;;;;4949708;28;20201;-74
2021/03/11 10:28:05;;;;;;;15.27;10.47;;;7.80;41.40;;;;;;4943725;29;20237;-74
2021/03/11 10:30:32;;;;;;;16.60;11.60;;;8.00;40.80;;;;;;4945771;29;20271;-74
2021/03/11 10:33:01;;;;;;;15.47;10.57;;;8.10;40.80;;;;;;4953430;28;20301;-74
2021/03/11 10:35:31;;;;;;;16.47;11.97;;;8.00;40.90;;;;;;4945766;29;20202;-73
2021/03/11 10:38:15;;;;;;;18.70;11.03;;;7.90;40.70;;;;;;4949440;28;20316;-78
2021/03/11 10:40:42;;;;;;;15.80;11.27;;;7.70;40.70;;;;;;4944710;29;20293;-75
2021/03/11 10:43:16;;;;;;;17.33;11.57;;;7.50;40.90;;;;;;4948004;28;20226;-70
2021/03/11 10:45:43;;;;;;;18.53;11.20;;;7.10;41.50;;;;;;4944789;29;20329;-74
2021/03/11 10:48:11;;;;;;;17.83;12.00;;;6.80;42.10;;;;;;4949618;28;20205;-74
2021/03/11 10:50:39;;;;;;;16.33;10.57;;;6.60;42.70;;;;;;4948707;28;20532;-72
2021/03/11 10:53:06;;;;;;;15.97;11.67;;;6.50;43.20;;;;;;4944055;29;20237;-73
2021/03/11 10:55:34;;;;;;;21.07;11.30;;;6.30;43.40;;;;;;4944896;28;20300;-73
2021/03/11 10:58:03;;;;;;;15.73;10.67;;;6.30;43.70;;;;;;4949605;28;20297;-73
2021/03/11 11:00:31;;;;;;;20.63;10.93;;;6.20;43.70;;;;;;4947813;28;20296;-74
2021/03/11 11:03:01;;;;;;;20.60;10.63;;;6.10;43.60;;;;;;4950742;29;20313;-75
2021/03/11 11:05:28;;;;;;;19.37;11.67;;;5.90;43.80;;;;;;4947595;29;20209;-73
2021/03/11 11:07:55;;;;;;;16.53;11.03;;;5.90;44.50;;;;;;4948147;29;20533;-74
2021/03/11 11:10:24;;;;;;;19.00;11.30;;;5.70;44.10;;;;;;4950306;28;20683;-73
2021/03/11 11:12:50;;;;;;;17.43;11.97;;;5.50;44.50;;;;;;4948788;28;20343;-74
2021/03/11 11:15:18;;;;;;;17.43;10.63;;;5.40;45.00;;;;;;4949813;28;20574;-74
2021/03/11 11:17:45;;;;;;;16.30;11.20;;;5.20;45.10;;;;;;4953826;28;20229;-75
2021/03/11 11:20:14;;;;;;;18.47;11.27;;;5.10;45.50;;;;;;4951791;28;20236;-75
2021/03/11 11:22:42;;;;;;;18.80;11.30;;;4.90;46.10;;;;;;4951319;28;20214;-72
2021/03/11 11:25:09;;;;;;;17.17;11.30;;;4.80;46.20;;;;;;4952056;28;20205;-73
2021/03/11 11:27:36;;;;;;;15.90;10.40;;;4.70;46.30;;;;;;4949055;28;20292;-73
2021/03/11 11:30:05;;;;;;;16.23;11.37;;;4.50;46.70;;;;;;4950144;29;20205;-71
2021/03/11 11:32:34;;;;;;;15.47;10.77;;;4.40;47.00;;;;;;4945927;28;20260;-71
2021/03/11 11:35:00;;;;;;;18.43;11.83;;;4.30;47.40;;;;;;4945102;29;20213;-71
2021/03/11 11:37:28;;;;;;;17.60;10.07;;;4.20;47.70;;;;;;4950268;28;20231;-72
2021/03/11 11:39:55;;;;;;;17.90;11.10;;;4.10;48.00;;;;;;4948399;28;20249;-72
2021/03/11 11:42:21;;;;;;;21.43;11.10;;;4.00;48.10;;;;;;4946144;29;20213;-73
2021/03/11 11:44:48;;;;;;;18.67;11.03;;;4.10;48.50;;;;;;4943766;28;20202;-73
2021/03/11 11:47:14;;;;;;;15.40;10.30;;;4.00;48.60;;;;;;4948229;28;20225;-72
2021/03/11 11:49:41;;;;;;;15.63;10.93;;;4.10;49.00;;;;;;4974547;28;20300;-75
2021/03/11 11:52:08;;;;;;;18.80;11.80;;;4.10;49.10;;;;;;4944837;28;20290;-72
2021/03/11 11:54:35;;;;;;;19.87;10.93;;;4.00;49.30;;;;;;4946282;28;20233;-74
2021/03/11 11:57:03;;;;;;;18.17;10.17;;;4.00;49.70;;;;;;4945678;28;20337;-74
2021/03/11 11:59:29;;;;;;;15.57;10.20;;;3.90;49.80;;;;;;4950190;28;20214;-72
2021/03/11 12:01:55;;;;;;;16.57;11.17;;;3.90;50.00;;;;;;4946560;28;20248;-73
2021/03/11 12:04:22;;;;;;;15.53;10.33;;;3.90;50.20;;;;;;4945968;29;20210;-75
2021/03/11 12:06:49;;;;;;;15.33;9.90;;;3.80;50.30;;;;;;4950429;28;20312;-73
2021/03/11 12:09:16;;;;;;;16.77;10.50;;;3.80;50.60;;;;;;4942854;29;20218;-72
2021/03/11 12:11:43;;;;;;;15.90;10.20;;;3.80;50.90;;;;;;4947664;29;20219;-74
2021/03/11 12:14:10;;;;;;;16.83;10.30;;;3.70;51.10;;;;;;4946580;28;20320;-73
2021/03/11 12:16:36;;;;;;;17.87;10.60;;;3.70;51.20;;;;;;4970675;28;20234;-77
2021/03/11 12:19:04;;;;;;;16.20;10.60;;;3.70;51.10;;;;;;4950008;28;20233;-81
2021/03/11 12:21:31;;;;;;;17.40;9.97;;;3.70;51.20;;;;;;4946845;28;20218;-76
2021/03/11 12:23:58;;;;;;;18.53;11.03;;;3.70;51.30;;;;;;4943640;29;20298;-79
2021/03/11 12:26:24;;;;;;;17.73;10.03;;;3.70;51.40;;;;;;4951428;28;20294;-78
2021/03/11 12:28:51;;;;;;;17.10;9.83;;;3.60;51.70;;;;;;4952910;28;20233;-76
2021/03/11 12:31:18;;;;;;;22.20;11.43;;;3.60;51.80;;;;;;4956461;29;20301;-77
2021/03/11 12:33:46;;;;;;;17.07;10.27;;;3.60;52.00;;;;;;4950408;28;20651;-74
2021/03/11 12:36:13;;;;;;;21.57;11.00;;;3.60;52.50;;;;;;4950703;28;20213;-72
2021/03/11 12:38:40;;;;;;;19.20;10.53;;;3.50;52.80;;;;;;4951645;28;20388;-76
2021/03/11 12:41:08;;;;;;;18.40;10.50;;;3.50;53.20;;;;;;4955571;28;20260;-78
2021/03/11 12:43:35;;;;;;;20.20;11.83;;;3.50;53.40;;;;;;4957269;28;20311;-78
2021/03/11 12:46:01;;;;;;;19.83;11.93;;;3.50;53.80;;;;;;4951303;28;20679;-75